Lyme Center, NH

11:23 AM EDT on July 26, 2016 (GMT -0400)
Baker Hill Road | | Change Station

Elev 1003 ft 43.79 °N, 72.13 °W | Updated 7 minutes ago

Scattered Clouds
Scattered Clouds
80.2 °F
Feels Like 86 °F
N
1.2
Wind Variable Wind from NNW
Gusts 5.0 mph

Today
High -- | Low -- °F
--% Chance of Precip.
Yesterday
High -- | Low -- °F
Precip. -- in
Pressure 29.82 in
Visibility 10.0 miles
Clouds Scattered Clouds 3900 ft
Scattered Clouds 4500 ft
Heat Index 86 °F
Dew Point 77 °F
Humidity 90%
Rainfall 0.00 in
Snow Depth Not available.
5:31 AM 8:17 PM
Waning Gibbous, 54% visible
METAR K1P1 261515Z AUTO 28008KT 10SM SCT039 SCT045 27/17 A2982 RMK AO2 T02680168
Pressure 29.82 in
Visibility 10.0 miles
Clouds Scattered Clouds 3900 ft
Scattered Clouds 4500 ft
Heat Index 86 °F
Dew Point 77 °F
Humidity 90%
Rainfall 0.00 in
Snow Depth Not available.
5:31 AM 8:17 PM
Waning Gibbous, 54% visible
METAR K1P1 261515Z AUTO 28008KT 10SM SCT039 SCT045 27/17 A2982 RMK AO2 T02680168

10-Day Weather Forecast

Almanac

Astronomy

Jul. 26, 2016 Rise Set
Actual Time
Civil Twilight
Nautical Twilight
Astronomical Twilight
Moon
Length of Visible Light
Length of Day
Tomorrow will be .
, % of the Moon is Illuminated

Today's Extremes

State Highs State Lows

Community

WunderPhotos

Upload Photos

1,927,611 photos uploaded!

WunderBlog® & News

Nearby

Air Quality

  Air Quality AQ Index Pollutant
Not available.

Snow Depth

Station Depth Elevation

Earthquake Activity

City Distance Mag. Time & Date
Minimum magnitude displayed is 2.5.

Coastal Water Temperatures

Place Temperature

Stations

Nearby Weather Stations

Station Location Temp. Windchill Dew Point Humidity Wind Precip. Elev Updated Type
                   

Watches & Warnings

There are currently no watches in effect.